Time;durP1;ratioP1;P1;durP2;ratioP2;P2;SDS_P1;SDS_P2;PMS_P1;PMS_P2;Temp;Humidity;BMP_temperature;BMP_pressure;BME280_temperature;BME280_humidity;BME280_pressure;Samples;Min_cycle;Max_cycle;Signal;HPM_P1;HPM_P2
2023/01/27 06:31:07;;;;;;;;;3.67;2.00;;;;;;;;6320404;22;46357;-59
2023/01/27 06:33:33;;;;;;;;;2.33;2.00;;;;;;;;6374712;22;47060;-59
2023/01/27 06:36:02;;;;;;;;;7.33;3.00;;;;;;;;6401840;22;45304;-59
2023/01/27 06:38:28;;;;;;;;;1.33;1.33;;;;;;;;6401852;22;45326;-59
2023/01/27 06:40:53;;;;;;;;;1.00;0.00;;;;;;;;6402269;22;45266;-58
2023/01/27 06:43:18;;;;;;;;;2.67;2.67;;;;;;;;6403522;22;45586;-60
2023/01/27 06:45:43;;;;;;;;;2.00;2.00;;;;;;;;6375374;22;45260;-59
2023/01/27 06:48:08;;;;;;;;;7.67;4.00;;;;;;;;6403424;22;45252;-59
2023/01/27 06:50:34;;;;;;;;;6.00;2.00;;;;;;;;6403737;22;45472;-59
2023/01/27 06:53:00;;;;;;;;;3.00;3.00;;;;;;;;6403187;22;45304;-59
2023/01/27 06:55:26;;;;;;;;;2.67;1.67;;;;;;;;6401350;22;45299;-59
2023/01/27 06:57:51;;;;;;;;;2.67;2.67;;;;;;;;6403726;22;45367;-60
2023/01/27 07:00:17;;;;;;;;;4.67;4.00;;;;;;;;6404035;22;45318;-59
2023/01/27 07:02:42;;;;;;;;;5.00;2.00;;;;;;;;6403763;22;46047;-60
2023/01/27 07:05:08;;;;;;;;;5.00;3.00;;;;;;;;6402834;22;45294;-60
2023/01/27 07:07:33;;;;;;;;;3.33;2.67;;;;;;;;6402944;22;45349;-59
2023/01/27 07:09:58;;;;;;;;;6.33;4.67;;;;;;;;6373163;22;45336;-59
2023/01/27 07:12:23;;;;;;;;;4.33;3.00;;;;;;;;6402399;22;45938;-59
2023/01/27 07:14:48;;;;;;;;;3.00;3.00;;;;;;;;6403133;22;45356;-59
2023/01/27 07:17:14;;;;;;;;;2.67;2.67;;;;;;;;6373163;22;45346;-59
2023/01/27 07:19:39;;;;;;;;;5.00;3.00;;;;;;;;6404053;22;45431;-59
2023/01/27 07:22:04;;;;;;;;;3.00;3.00;;;;;;;;6402152;22;46183;-59
2023/01/27 07:24:29;;;;;;;;;3.00;3.00;;;;;;;;6374541;22;45349;-59
2023/01/27 07:26:55;;;;;;;;;2.00;2.00;;;;;;;;6402065;22;45333;-62
2023/01/27 07:29:20;;;;;;;;;6.67;4.00;;;;;;;;6404288;22;45319;-59
2023/01/27 07:31:45;;;;;;;;;6.33;3.00;;;;;;;;6403053;22;46161;-59
2023/01/27 07:34:10;;;;;;;;;4.33;4.00;;;;;;;;6402434;22;45348;-58
2023/01/27 07:36:35;;;;;;;;;3.00;3.00;;;;;;;;6403010;22;45223;-58
2023/01/27 07:39:01;;;;;;;;;2.00;2.00;;;;;;;;6400971;22;45321;-54
2023/01/27 07:41:26;;;;;;;;;2.67;1.00;;;;;;;;6402624;22;47027;-54
2023/01/27 07:43:51;;;;;;;;;3.00;3.00;;;;;;;;6402050;22;45492;-56
2023/01/27 07:46:16;;;;;;;;;6.33;2.67;;;;;;;;6401628;22;45406;-55
2023/01/27 07:48:42;;;;;;;;;4.00;3.33;;;;;;;;6401407;22;45422;-54
2023/01/27 07:51:10;;;;;;;;;3.00;3.00;;;;;;;;6403314;22;45421;-57
2023/01/27 07:53:35;;;;;;;;;2.00;2.00;;;;;;;;6375018;22;45203;-56
2023/01/27 07:56:00;;;;;;;;;9.67;6.33;;;;;;;;6402353;22;45349;-55
2023/01/27 07:58:26;;;;;;;;;4.00;4.00;;;;;;;;6403824;22;45320;-56
2023/01/27 08:00:51;;;;;;;;;4.33;4.00;;;;;;;;6402523;22;45957;-56
2023/01/27 08:03:21;;;;;;;;;4.33;4.33;;;;;;;;6403478;22;45360;-55
2023/01/27 08:05:46;;;;;;;;;8.00;3.33;;;;;;;;6403706;22;45289;-55
2023/01/27 08:08:11;;;;;;;;;6.33;4.00;;;;;;;;6402466;22;45373;-55
2023/01/27 08:10:36;;;;;;;;;6.33;4.00;;;;;;;;6402106;22;47125;-54
2023/01/27 08:13:01;;;;;;;;;6.33;4.00;;;;;;;;6401390;22;45355;-54
2023/01/27 08:15:27;;;;;;;;;5.67;4.00;;;;;;;;6402029;22;45427;-55
2023/01/27 08:17:53;;;;;;;;;4.00;4.00;;;;;;;;6400552;22;45270;-56
2023/01/27 08:20:18;;;;;;;;;4.33;3.00;;;;;;;;6402062;22;46002;-56
2023/01/27 08:22:43;;;;;;;;;5.00;4.00;;;;;;;;6374545;22;45402;-56
2023/01/27 08:25:09;;;;;;;;;10.33;7.00;;;;;;;;6402305;22;45299;-55
2023/01/27 08:27:34;;;;;;;;;7.33;4.00;;;;;;;;6403028;22;45356;-55
2023/01/27 08:29:59;;;;;;;;;2.33;0.00;;;;;;;;6401545;22;45329;-54
2023/01/27 08:32:24;;;;;;;;;4.67;4.67;;;;;;;;6402855;22;45222;-56
2023/01/27 08:34:49;;;;;;;;;5.67;4.00;;;;;;;;6403263;22;45263;-55
2023/01/27 08:37:15;;;;;;;;;11.00;4.00;;;;;;;;6402360;22;45301;-56
2023/01/27 08:39:40;;;;;;;;;8.00;6.67;;;;;;;;6402981;22;46832;-56
2023/01/27 08:42:05;;;;;;;;;8.33;6.33;;;;;;;;6401818;22;45375;-55
2023/01/27 08:44:30;;;;;;;;;5.00;5.00;;;;;;;;6402473;22;45312;-56
2023/01/27 08:46:56;;;;;;;;;9.67;5.67;;;;;;;;6400171;22;45308;-57
2023/01/27 08:49:21;;;;;;;;;4.00;4.00;;;;;;;;6401375;22;45304;-57
2023/01/27 08:51:46;;;;;;;;;6.33;6.33;;;;;;;;6402262;22;45430;-58
2023/01/27 08:54:11;;;;;;;;;6.00;4.33;;;;;;;;6373408;22;45386;-57
2023/01/27 08:56:36;;;;;;;;;7.67;5.67;;;;;;;;6400413;22;45372;-58
2023/01/27 08:59:02;;;;;;;;;5.67;4.67;;;;;;;;6401850;22;45325;-58
2023/01/27 09:01:27;;;;;;;;;8.67;8.00;;;;;;;;6402817;22;45288;-58
2023/01/27 09:03:52;;;;;;;;;7.67;4.00;;;;;;;;6401813;22;45279;-58
2023/01/27 09:06:18;;;;;;;;;8.00;7.00;;;;;;;;6402822;22;45343;-58
2023/01/27 09:08:43;;;;;;;;;8.67;5.67;;;;;;;;6402310;22;46040;-58
2023/01/27 09:11:08;;;;;;;;;5.67;5.67;;;;;;;;6402110;22;45348;-59
2023/01/27 09:13:34;;;;;;;;;7.33;5.00;;;;;;;;6402395;22;45294;-58
2023/01/27 09:16:00;;;;;;;;;10.00;7.00;;;;;;;;6402013;22;45586;-58
2023/01/27 09:18:25;;;;;;;;;12.67;7.00;;;;;;;;6400300;22;46179;-58
2023/01/27 09:20:50;;;;;;;;;5.00;5.00;;;;;;;;6401693;22;45363;-58
2023/01/27 09:23:15;;;;;;;;;9.67;8.67;;;;;;;;6402073;22;45493;-58
2023/01/27 09:25:40;;;;;;;;;7.67;6.67;;;;;;;;6401421;22;45274;-57
2023/01/27 09:28:10;;;;;;;;;10.00;8.00;;;;;;;;6401475;22;46192;-58
2023/01/27 09:30:36;;;;;;;;;8.67;7.33;;;;;;;;6402062;22;45284;-58
2023/01/27 09:33:01;;;;;;;;;7.33;4.33;;;;;;;;6402441;22;45280;-58
2023/01/27 09:35:34;;;;;;;;;8.00;5.00;;;;;;;;6403453;22;45666;-57
2023/01/27 09:37:59;;;;;;;;;13.00;7.67;;;;;;;;6402683;22;45472;-57
2023/01/27 09:40:24;;;;;;;;;6.33;4.33;;;;;;;;6402265;22;45226;-57
2023/01/27 09:43:22;;;;;;;;;9.00;7.50;;;;;;;;6402448;22;45296;-57
2023/01/27 09:45:53;;;;;;;;;7.00;5.67;;;;;;;;6332135;22;45457;-57
2023/01/27 09:48:27;;;;;;;;;8.00;8.00;;;;;;;;6402802;22;47055;-57
2023/01/27 09:50:52;;;;;;;;;6.33;4.67;;;;;;;;6402527;22;45299;-58
2023/01/27 09:53:17;;;;;;;;;11.67;6.33;;;;;;;;6403710;22;45293;-58
2023/01/27 09:55:45;;;;;;;;;8.67;7.33;;;;;;;;6402608;22;45532;-59
2023/01/27 09:58:26;;;;;;;;;7.33;5.00;;;;;;;;6403236;22;46098;-58
2023/01/27 10:00:52;;;;;;;;;5.00;5.00;;;;;;;;6402684;22;45356;-59
2023/01/27 10:03:17;;;;;;;;;8.00;8.00;;;;;;;;6403380;22;45356;-57
2023/01/27 10:06:01;;;;;;;;;8.00;8.00;;;;;;;;6403178;22;45379;-57
2023/01/27 10:08:41;;;;;;;;;8.33;5.33;;;;;;;;6401501;22;45395;-58
2023/01/27 10:11:14;;;;;;;;;5.00;4.00;;;;;;;;6400739;22;45519;-59
2023/01/27 10:13:51;;;;;;;;;5.00;5.00;;;;;;;;6403111;22;45324;-58
2023/01/27 10:16:18;;;;;;;;;8.00;6.33;;;;;;;;6403485;22;45409;-58
2023/01/27 10:18:43;;;;;;;;;8.00;8.00;;;;;;;;6402017;22;47067;-58
2023/01/27 10:21:34;;;;;;;;;14.33;7.00;;;;;;;;6401897;22;45284;-59
2023/01/27 10:24:00;;;;;;;;;7.67;7.67;;;;;;;;6395386;22;45210;-58
2023/01/27 10:26:40;;;;;;;;;10.67;9.00;;;;;;;;6402889;22;45541;-57
2023/01/27 10:29:22;;;;;;;;;7.67;5.67;;;;;;;;6402692;22;45346;-56
2023/01/27 10:31:54;;;;;;;;;6.67;6.33;;;;;;;;6402622;22;45316;-58
2023/01/27 10:34:33;;;;;;;;;7.00;7.00;;;;;;;;6403165;22;45342;-56
2023/01/27 10:36:58;;;;;;;;;7.67;6.33;;;;;;;;6402706;22;45322;-57
2023/01/27 10:39:32;;;;;;;;;5.00;3.00;;;;;;;;6403176;22;45969;-58
2023/01/27 10:42:16;;;;;;;;;8.33;6.33;;;;;;;;6401613;22;45414;-57
2023/01/27 10:44:53;;;;;;;;;10.67;7.00;;;;;;;;6402756;22;45222;-70
2023/01/27 10:47:40;;;;;;;;;8.00;7.00;;;;;;;;6402694;22;45467;-58
2023/01/27 10:50:08;;;;;;;;;9.67;7.00;;;;;;;;6401506;22;46146;-57
2023/01/27 10:52:55;;;;;;;;;6.67;6.67;;;;;;;;6374429;22;45320;-58
2023/01/27 10:55:24;;;;;;;;;10.67;5.67;;;;;;;;6402886;22;45617;-57
2023/01/27 10:57:52;;;;;;;;;7.00;7.00;;;;;;;;6402004;22;45255;-58
2023/01/27 11:00:38;;;;;;;;;8.00;8.00;;;;;;;;6401600;22;46056;-58
2023/01/27 11:03:21;;;;;;;;;10.33;6.33;;;;;;;;6401980;22;45407;-59
2023/01/27 11:05:50;;;;;;;;;9.00;8.67;;;;;;;;6402422;22;45309;-57
2023/01/27 11:08:16;;;;;;;;;7.00;6.33;;;;;;;;6374437;22;45323;-58
2023/01/27 11:11:43;;;;;;;;;7.67;7.67;;;;;;;;6403072;22;46045;-57
2023/01/27 11:13:29;;;;;;;;;8.00;7.67;;;;;;;;6402198;22;45336;-57
2023/01/27 11:15:55;;;;;;;;;6.33;5.33;;;;;;;;6403097;22;45405;-57
2023/01/27 11:18:27;;;;;;;;;9.33;7.33;;;;;;;;6403522;22;45257;-57
2023/01/27 11:20:54;;;;;;;;;5.33;5.33;;;;;;;;6401700;22;45320;-59
2023/01/27 11:23:26;;;;;;;;;8.33;8.33;;;;;;;;6403128;22;45366;-57
2023/01/27 11:26:10;;;;;;;;;13.33;7.67;;;;;;;;6401766;22;45312;-57
2023/01/27 11:28:40;;;;;;;;;10.33;8.67;;;;;;;;6402515;22;45652;-59
2023/01/27 11:31:24;;;;;;;;;10.33;10.33;;;;;;;;6401932;22;46189;-58
2023/01/27 11:34:08;;;;;;;;;13.00;8.00;;;;;;;;6403098;22;45477;-58
2023/01/27 11:36:33;;;;;;;;;9.67;9.67;;;;;;;;6402976;22;45354;-59
2023/01/27 11:39:00;;;;;;;;;14.33;7.00;;;;;;;;6403203;22;45308;-58
2023/01/27 11:41:25;;;;;;;;;9.00;9.00;;;;;;;;6402772;22;46036;-58
2023/01/27 11:43:51;;;;;;;;;9.33;8.00;;;;;;;;6402062;22;45305;-59
2023/01/27 11:46:22;;;;;;;;;10.33;8.33;;;;;;;;6403649;22;45363;-58
2023/01/27 11:48:49;;;;;;;;;8.67;7.33;;;;;;;;6402253;22;45466;-58
2023/01/27 11:51:25;;;;;;;;;15.00;10.00;;;;;;;;6373803;22;46758;-58
2023/01/27 11:54:10;;;;;;;;;10.67;8.33;;;;;;;;6402525;22;45304;-58
2023/01/27 11:56:36;;;;;;;;;11.67;10.00;;;;;;;;6401667;22;45324;-58
2023/01/27 11:59:07;;;;;;;;;15.00;14.33;;;;;;;;6402567;22;45322;-58
2023/01/27 12:01:38;;;;;;;;;14.67;10.00;;;;;;;;6373942;22;46551;-57
2023/01/27 12:04:06;;;;;;;;;10.00;8.67;;;;;;;;6401833;22;45326;-59
2023/01/27 12:06:34;;;;;;;;;13.33;11.33;;;;;;;;6403230;22;45277;-58
2023/01/27 12:08:59;;;;;;;;;9.33;8.00;;;;;;;;6402326;22;45670;-58
2023/01/27 12:11:26;;;;;;;;;12.33;11.33;;;;;;;;6402117;22;46172;-60
2023/01/27 12:13:56;;;;;;;;;13.33;11.00;;;;;;;;6402725;22;45296;-60
2023/01/27 12:16:24;;;;;;;;;18.67;14.00;;;;;;;;6403018;22;45327;-59
2023/01/27 12:18:58;;;;;;;;;14.00;12.50;;;;;;;;6402841;22;45412;-59
2023/01/27 12:21:33;;;;;;;;;14.67;12.33;;;;;;;;6401385;22;45347;-59
2023/01/27 12:23:58;;;;;;;;;12.67;11.67;;;;;;;;6373868;22;45306;-60
2023/01/27 12:26:34;;;;;;;;;16.33;15.00;;;;;;;;6402274;22;45353;-60
2023/01/27 12:29:03;;;;;;;;;15.67;15.00;;;;;;;;6401069;22;45299;-60
2023/01/27 12:31:29;;;;;;;;;9.00;9.00;;;;;;;;6372839;22;47216;-60
2023/01/27 12:34:15;;;;;;;;;13.33;11.33;;;;;;;;6401199;22;45349;-60
2023/01/27 12:36:42;;;;;;;;;17.33;14.00;;;;;;;;6379357;22;45403;-59
2023/01/27 12:39:23;;;;;;;;;15.00;12.67;;;;;;;;6402247;22;45353;-59
2023/01/27 12:41:49;;;;;;;;;16.00;11.00;;;;;;;;6402119;22;46175;-60
2023/01/27 12:44:16;;;;;;;;;14.33;12.67;;;;;;;;6402341;22;45395;-60
2023/01/27 12:46:53;;;;;;;;;11.67;10.33;;;;;;;;6402877;22;45324;-59
2023/01/27 12:49:19;;;;;;;;;19.33;16.00;;;;;;;;6402725;22;45433;-59
2023/01/27 12:51:53;;;;;;;;;9.67;9.67;;;;;;;;6402183;22;47142;-58
2023/01/27 12:54:28;;;;;;;;;17.67;15.67;;;;;;;;6402568;22;45435;-59
2023/01/27 12:56:59;;;;;;;;;14.67;14.00;;;;;;;;6401665;22;45494;-59
2023/01/27 12:59:24;;;;;;;;;18.33;16.33;;;;;;;;6402512;22;45380;-59
2023/01/27 13:01:56;;;;;;;;;14.00;11.00;;;;;;;;6373377;22;45721;-59
2023/01/27 13:04:26;;;;;;;;;15.33;11.33;;;;;;;;6401502;22;45344;-60
2023/01/27 13:07:00;;;;;;;;;12.33;12.33;;;;;;;;6347103;22;45322;-60
2023/01/27 13:09:37;;;;;;;;;14.33;12.00;;;;;;;;6402347;22;45575;-59
2023/01/27 13:12:15;;;;;;;;;15.33;11.67;;;;;;;;6401480;22;46274;-59
2023/01/27 13:14:41;;;;;;;;;3.00;1.67;;;;;;;;6402150;22;45306;-59
2023/01/27 13:17:25;;;;;;;;;14.67;10.67;;;;;;;;6401622;22;45426;-59
2023/01/27 13:19:53;;;;;;;;;10.33;10.33;;;;;;;;6402432;22;45337;-59
2023/01/27 13:22:20;;;;;;;;;16.00;14.00;;;;;;;;6402041;22;46869;-60
2023/01/27 13:24:48;;;;;;;;;8.33;6.33;;;;;;;;6402083;22;45481;-60
2023/01/27 13:27:16;;;;;;;;;16.33;11.00;;;;;;;;6401959;22;45378;-59
2023/01/27 13:29:45;;;;;;;;;16.33;10.67;;;;;;;;6373540;22;45473;-61
2023/01/27 13:32:25;;;;;;;;;8.00;3.00;;;;;;;;6401757;22;46084;-60
2023/01/27 13:35:02;;;;;;;;;13.33;9.33;;;;;;;;6401343;22;45334;-60
2023/01/27 13:37:36;;;;;;;;;14.33;10.00;;;;;;;;6401899;22;45344;-60
2023/01/27 13:40:11;;;;;;;;;3.67;2.00;;;;;;;;6401879;22;45309;-60
2023/01/27 13:42:42;;;;;;;;;10.67;8.00;;;;;;;;6402213;22;46308;-60
2023/01/27 13:45:34;;;;;;;;;8.33;8.00;;;;;;;;6401732;22;45331;-60
2023/01/27 13:48:21;;;;;;;;;12.33;7.00;;;;;;;;6394816;22;45685;-60
2023/01/27 13:50:48;;;;;;;;;9.00;5.00;;;;;;;;6402051;22;45441;-60
2023/01/27 13:53:16;;;;;;;;;8.67;5.00;;;;;;;;6401476;22;46832;-59
2023/01/27 13:55:51;;;;;;;;;5.00;5.00;;;;;;;;6400276;22;45396;-59
2023/01/27 13:58:34;;;;;;;;;10.33;8.67;;;;;;;;6400733;22;45763;-59
2023/01/27 14:01:16;;;;;;;;;6.67;5.67;;;;;;;;6398964;22;45684;-59
2023/01/27 14:04:00;;;;;;;;;5.67;4.00;;;;;;;;6401713;22;45328;-60
2023/01/27 14:06:35;;;;;;;;;8.33;6.67;;;;;;;;6400508;22;45281;-59
2023/01/27 14:09:03;;;;;;;;;7.00;7.00;;;;;;;;6400794;22;45425;-59
2023/01/27 14:11:35;;;;;;;;;5.00;4.00;;;;;;;;6400266;22;45676;-59
2023/01/27 14:14:15;;;;;;;;;8.00;7.67;;;;;;;;6400758;22;45328;-60
2023/01/27 14:16:49;;;;;;;;;8.33;8.00;;;;;;;;6403073;22;45802;-60
2023/01/27 14:19:20;;;;;;;;;8.00;8.00;;;;;;;;6402530;22;45322;-58
2023/01/27 14:21:49;;;;;;;;;12.67;9.00;;;;;;;;6403423;22;45313;-59
2023/01/27 14:24:34;;;;;;;;;10.33;9.33;;;;;;;;6402882;22;46352;-59
2023/01/27 14:27:06;;;;;;;;;14.00;10.67;;;;;;;;6402330;22;45270;-60
2023/01/27 14:29:50;;;;;;;;;13.67;11.00;;;;;;;;6403647;22;45183;-61
2023/01/27 14:32:27;;;;;;;;;10.00;10.00;;;;;;;;6403618;22;45539;-61
2023/01/27 14:34:56;;;;;;;;;6.00;5.00;;;;;;;;6374092;22;45421;-61
2023/01/27 14:37:32;;;;;;;;;14.67;10.33;;;;;;;;6402718;22;45475;-62
2023/01/27 14:40:15;;;;;;;;;14.33;12.00;;;;;;;;6373394;22;45461;-59
2023/01/27 14:43:07;;;;;;;;;11.67;10.67;;;;;;;;6403198;22;45716;-60
2023/01/27 14:45:36;;;;;;;;;16.67;10.33;;;;;;;;6352375;22;46560;-59
2023/01/27 14:48:08;;;;;;;;;14.33;9.00;;;;;;;;6402793;22;45440;-60
2023/01/27 14:50:36;;;;;;;;;11.67;9.67;;;;;;;;6403022;22;45321;-59
2023/01/27 14:53:01;;;;;;;;;22.00;12.00;;;;;;;;6373699;22;45645;-58
2023/01/27 14:55:45;;;;;;;;;16.67;12.00;;;;;;;;6402453;22;45379;-60
2023/01/27 14:58:19;;;;;;;;;8.00;7.33;;;;;;;;6402737;22;45281;-59
2023/01/27 15:00:52;;;;;;;;;8.33;8.00;;;;;;;;6374327;22;45282;-59
2023/01/27 15:03:41;;;;;;;;;11.33;9.67;;;;;;;;6402445;22;45542;-59
2023/01/27 15:06:06;;;;;;;;;13.00;8.67;;;;;;;;6341600;22;46366;-58
2023/01/27 15:08:41;;;;;;;;;12.67;9.33;;;;;;;;6402984;22;45238;-58
2023/01/27 15:11:20;;;;;;;;;14.33;10.33;;;;;;;;6402574;22;45324;-59
2023/01/27 15:13:54;;;;;;;;;10.67;10.00;;;;;;;;6402836;22;45347;-58
2023/01/27 15:16:38;;;;;;;;;11.33;10.00;;;;;;;;6402641;22;46690;-59
2023/01/27 15:19:09;;;;;;;;;12.67;10.00;;;;;;;;6402315;22;45395;-61
2023/01/27 15:21:41;;;;;;;;;15.33;10.67;;;;;;;;6402663;22;45326;-61
2023/01/27 15:24:15;;;;;;;;;11.67;10.33;;;;;;;;6402319;22;45522;-61
2023/01/27 15:26:40;;;;;;;;;15.33;11.00;;;;;;;;6401901;22;46038;-61
2023/01/27 15:29:09;;;;;;;;;10.00;8.33;;;;;;;;6400605;22;45244;-60
2023/01/27 15:31:34;;;;;;;;;13.33;12.00;;;;;;;;6402963;22;45219;-61
2023/01/27 15:34:02;;;;;;;;;10.67;9.00;;;;;;;;6402739;22;45606;-60
2023/01/27 15:36:28;;;;;;;;;17.67;10.33;;;;;;;;6402987;22;46103;-60
2023/01/27 15:39:09;;;;;;;;;10.00;10.00;;;;;;;;6402402;22;45265;-60
2023/01/27 15:41:50;;;;;;;;;16.00;13.67;;;;;;;;6402854;22;45286;-60
2023/01/27 15:44:36;;;;;;;;;11.00;10.00;;;;;;;;6402542;22;45344;-60
2023/01/27 15:47:15;;;;;;;;;11.33;10.33;;;;;;;;6401341;22;46722;-60
2023/01/27 15:50:03;;;;;;;;;12.00;9.00;;;;;;;;6402815;22;45581;-61
2023/01/27 15:52:42;;;;;;;;;10.00;8.67;;;;;;;;6373548;22;45250;-60
2023/01/27 15:55:20;;;;;;;;;10.00;10.00;;;;;;;;6400032;22;45559;-60
2023/01/27 15:57:45;;;;;;;;;13.00;11.00;;;;;;;;6402246;22;46368;-61
2023/01/27 16:00:23;;;;;;;;;9.67;9.33;;;;;;;;6402332;22;45329;-61
2023/01/27 16:02:53;;;;;;;;;8.00;8.00;;;;;;;;6403427;22;45226;-61
2023/01/27 16:05:25;;;;;;;;;15.67;15.00;;;;;;;;6403749;22;45457;-61
2023/01/27 16:07:57;;;;;;;;;13.33;13.33;;;;;;;;6400483;22;46281;-61
2023/01/27 16:10:26;;;;;;;;;26.33;21.67;;;;;;;;6402405;22;45354;-61
2023/01/27 16:13:11;;;;;;;;;18.67;14.33;;;;;;;;6372978;22;45288;-61
2023/01/27 16:15:37;;;;;;;;;12.00;12.00;;;;;;;;6402263;22;45275;-61
2023/01/27 16:18:06;;;;;;;;;13.67;13.67;;;;;;;;6401493;22;46083;-60
2023/01/27 16:20:33;;;;;;;;;18.67;16.33;;;;;;;;6402825;22;45278;-61
2023/01/27 16:23:00;;;;;;;;;9.67;9.67;;;;;;;;6401877;22;45619;-61
2023/01/27 16:25:35;;;;;;;;;21.33;13.67;;;;;;;;6401962;22;45245;-61
2023/01/27 16:28:06;;;;;;;;;20.67;18.00;;;;;;;;6402405;22;46124;-61
2023/01/27 16:30:39;;;;;;;;;19.33;18.67;;;;;;;;6401966;22;45402;-61
2023/01/27 16:33:15;;;;;;;;;15.33;11.33;;;;;;;;6401660;22;45217;-61
2023/01/27 16:35:59;;;;;;;;;19.33;18.33;;;;;;;;6403423;22;45313;-61
2023/01/27 16:38:25;;;;;;;;;14.00;13.67;;;;;;;;6402418;22;46965;-61
2023/01/27 16:40:53;;;;;;;;;17.00;16.67;;;;;;;;6401289;22;45344;-61
2023/01/27 16:43:21;;;;;;;;;20.33;16.67;;;;;;;;6402916;22;45349;-61
2023/01/27 16:45:47;;;;;;;;;18.67;16.33;;;;;;;;6402030;22;45286;-61
2023/01/27 16:48:21;;;;;;;;;10.67;9.33;;;;;;;;6401645;22;46130;-61
2023/01/27 16:50:47;;;;;;;;;19.33;19.33;;;;;;;;6402821;22;45435;-61
2023/01/27 16:53:17;;;;;;;;;13.67;12.67;;;;;;;;6402687;22;45380;-61
2023/01/27 16:55:53;;;;;;;;;10.33;9.00;;;;;;;;6402562;22;45542;-61
2023/01/27 16:58:20;;;;;;;;;13.33;11.67;;;;;;;;6402037;22;45334;-61
2023/01/27 17:00:49;;;;;;;;;14.67;10.33;;;;;;;;6401692;22;45297;-61
2023/01/27 17:03:18;;;;;;;;;18.00;15.67;;;;;;;;6401382;22;45706;-61
2023/01/27 17:05:49;;;;;;;;;18.67;16.00;;;;;;;;6402006;22;45600;-62
2023/01/27 17:08:14;;;;;;;;;16.00;12.00;;;;;;;;6400445;22;45599;-61
2023/01/27 17:11:05;;;;;;;;;18.33;14.00;;;;;;;;6402407;22;45270;-62
2023/01/27 17:13:33;;;;;;;;;23.33;13.33;;;;;;;;6396379;22;45321;-62
2023/01/27 17:15:59;;;;;;;;;17.67;15.67;;;;;;;;6402367;22;45358;-61
2023/01/27 17:18:26;;;;;;;;;23.33;18.33;;;;;;;;6402627;22;45355;-61
2023/01/27 17:20:52;;;;;;;;;18.00;16.33;;;;;;;;6401437;22;45368;-61
2023/01/27 17:23:27;;;;;;;;;18.33;13.33;;;;;;;;6403196;22;45378;-60
2023/01/27 17:25:53;;;;;;;;;18.33;17.00;;;;;;;;6401153;22;45248;-61
2023/01/27 17:28:22;;;;;;;;;18.33;18.00;;;;;;;;6402243;22;46255;-61
2023/01/27 17:30:49;;;;;;;;;23.33;22.33;;;;;;;;6401817;22;45580;-61
2023/01/27 17:33:19;;;;;;;;;20.33;20.33;;;;;;;;6401145;22;45415;-61
2023/01/27 17:35:48;;;;;;;;;24.00;20.67;;;;;;;;6401641;22;45294;-61
2023/01/27 17:38:23;;;;;;;;;19.00;15.33;;;;;;;;6401396;22;46289;-61
2023/01/27 17:40:49;;;;;;;;;26.00;17.67;;;;;;;;6401832;22;45656;-61
2023/01/27 17:43:26;;;;;;;;;19.00;17.33;;;;;;;;6401894;22;45302;-61
2023/01/27 17:46:07;;;;;;;;;21.00;18.00;;;;;;;;6401144;22;45750;-61
2023/01/27 17:48:33;;;;;;;;;15.00;15.00;;;;;;;;6401469;22;45350;-61
2023/01/27 17:50:59;;;;;;;;;27.67;19.67;;;;;;;;6401971;22;45269;-60
2023/01/27 17:53:24;;;;;;;;;24.00;20.33;;;;;;;;6403996;22;45480;-61
2023/01/27 17:55:50;;;;;;;;;18.67;16.67;;;;;;;;6402259;22;45744;-61
2023/01/27 17:58:20;;;;;;;;;27.67;22.67;;;;;;;;6403081;22;45632;-62
2023/01/27 18:00:45;;;;;;;;;34.00;27.33;;;;;;;;6403551;22;45586;-62
2023/01/27 18:03:16;;;;;;;;;26.67;23.67;;;;;;;;6401359;22;45304;-61
2023/01/27 18:05:43;;;;;;;;;24.33;20.33;;;;;;;;6403261;22;45430;-61
2023/01/27 18:08:09;;;;;;;;;25.67;25.67;;;;;;;;6401765;22;46033;-62
2023/01/27 18:10:34;;;;;;;;;14.67;14.67;;;;;;;;6401221;22;45849;-61
2023/01/27 18:13:11;;;;;;;;;24.67;24.00;;;;;;;;6402412;22;45233;-62
2023/01/27 18:16:00;;;;;;;;;21.33;16.00;;;;;;;;6403932;22;45198;-61
2023/01/27 18:18:29;;;;;;;;;17.00;17.00;;;;;;;;6385852;22;45367;-61
2023/01/27 18:20:57;;;;;;;;;21.00;18.67;;;;;;;;6402385;22;45336;-61
2023/01/27 18:23:25;;;;;;;;;21.67;19.33;;;;;;;;6403017;22;45393;-61
2023/01/27 18:26:00;;;;;;;;;24.67;21.00;;;;;;;;6402588;22;45859;-61
2023/01/27 18:28:31;;;;;;;;;23.67;18.00;;;;;;;;6402791;22;45366;-61
2023/01/27 18:30:57;;;;;;;;;23.67;19.00;;;;;;;;6401867;22;45404;-61
2023/01/27 18:33:22;;;;;;;;;26.00;22.00;;;;;;;;6403093;22;45270;-61
2023/01/27 18:35:55;;;;;;;;;22.67;18.00;;;;;;;;6403918;22;45519;-61
2023/01/27 18:38:22;;;;;;;;;19.33;16.67;;;;;;;;6402556;22;46297;-61
2023/01/27 18:40:47;;;;;;;;;18.33;16.67;;;;;;;;6401560;22;45349;-61
2023/01/27 18:43:12;;;;;;;;;15.33;14.67;;;;;;;;6403171;22;45261;-62
2023/01/27 18:45:39;;;;;;;;;17.33;16.00;;;;;;;;6374462;22;45360;-60
2023/01/27 18:48:08;;;;;;;;;16.33;16.00;;;;;;;;6374240;22;46186;-61
2023/01/27 18:50:38;;;;;;;;;18.00;16.33;;;;;;;;6404193;22;45370;-60
2023/01/27 18:53:10;;;;;;;;;23.33;17.67;;;;;;;;6403135;22;45344;-60
2023/01/27 18:55:35;;;;;;;;;21.33;18.00;;;;;;;;6404043;22;45292;-61
2023/01/27 18:58:00;;;;;;;;;18.00;14.67;;;;;;;;6403205;22;45201;-61
2023/01/27 19:00:46;;;;;;;;;15.00;13.67;;;;;;;;6404078;22;45441;-60
2023/01/27 19:03:14;;;;;;;;;19.67;15.00;;;;;;;;6402639;22;45367;-60
2023/01/27 19:05:39;;;;;;;;;22.33;17.67;;;;;;;;6404123;22;45336;-60
2023/01/27 19:08:05;;;;;;;;;22.33;18.00;;;;;;;;6402571;22;46096;-61
2023/01/27 19:10:32;;;;;;;;;24.00;19.00;;;;;;;;6403282;22;45403;-61
2023/01/27 19:12:58;;;;;;;;;18.00;16.67;;;;;;;;6403478;22;45316;-61
2023/01/27 19:15:24;;;;;;;;;19.33;17.33;;;;;;;;6403843;22;45317;-61
2023/01/27 19:17:51;;;;;;;;;20.00;18.00;;;;;;;;6404027;22;45335;-61
2023/01/27 19:20:18;;;;;;;;;21.33;19.00;;;;;;;;6404128;22;45536;-61
2023/01/27 19:22:44;;;;;;;;;20.00;18.00;;;;;;;;6403553;22;45664;-60
2023/01/27 19:25:10;;;;;;;;;25.33;21.33;;;;;;;;6403251;22;45329;-61
2023/01/27 19:27:36;;;;;;;;;21.67;17.67;;;;;;;;6403831;22;45817;-61
2023/01/27 19:30:18;;;;;;;;;21.33;16.67;;;;;;;;6374966;22;45313;-62
2023/01/27 19:32:43;;;;;;;;;24.00;19.33;;;;;;;;6403772;22;45395;-63
2023/01/27 19:35:09;;;;;;;;;24.00;17.67;;;;;;;;6402593;22;45328;-61
2023/01/27 19:37:34;;;;;;;;;27.00;18.67;;;;;;;;6403879;22;45400;-60
2023/01/27 19:40:01;;;;;;;;;20.67;17.33;;;;;;;;6402555;22;45265;-62
2023/01/27 19:42:26;;;;;;;;;17.00;16.33;;;;;;;;6403669;22;45379;-62
2023/01/27 19:44:51;;;;;;;;;24.00;19.00;;;;;;;;6403117;22;45503;-62
2023/01/27 19:47:16;;;;;;;;;15.33;15.33;;;;;;;;6404176;22;45372;-61
2023/01/27 19:49:41;;;;;;;;;19.00;16.67;;;;;;;;6403507;22;45343;-61
2023/01/27 19:52:08;;;;;;;;;23.00;18.33;;;;;;;;6403405;22;45342;-61
2023/01/27 19:54:33;;;;;;;;;18.67;18.67;;;;;;;;6403097;22;45415;-61
2023/01/27 19:56:59;;;;;;;;;23.33;20.67;;;;;;;;6403095;22;45371;-61
2023/01/27 19:59:24;;;;;;;;;24.33;20.00;;;;;;;;6403640;22;45282;-61
2023/01/27 20:01:49;;;;;;;;;20.67;18.00;;;;;;;;6375359;22;45353;-60
2023/01/27 20:04:14;;;;;;;;;25.33;22.33;;;;;;;;6402423;22;45410;-60
2023/01/27 20:06:40;;;;;;;;;28.00;23.67;;;;;;;;6403599;22;45346;-60
2023/01/27 20:09:05;;;;;;;;;26.33;25.00;;;;;;;;6402893;22;45239;-60
2023/01/27 20:11:30;;;;;;;;;20.33;17.67;;;;;;;;6403592;22;45296;-59
2023/01/27 20:13:55;;;;;;;;;34.33;29.67;;;;;;;;6403394;22;45421;-61
2023/01/27 20:16:21;;;;;;;;;34.00;27.00;;;;;;;;6402911;22;45303;-61
2023/01/27 20:18:47;;;;;;;;;36.33;29.67;;;;;;;;6402515;22;45226;-61
2023/01/27 20:21:12;;;;;;;;;37.33;28.33;;;;;;;;6401839;22;45220;-61
2023/01/27 20:23:37;;;;;;;;;31.33;27.33;;;;;;;;6402852;22;45567;-60
2023/01/27 20:26:06;;;;;;;;;32.33;25.00;;;;;;;;6400638;22;46287;-60
2023/01/27 20:28:32;;;;;;;;;27.00;25.33;;;;;;;;6400337;22;45305;-60
2023/01/27 20:30:57;;;;;;;;;25.67;24.67;;;;;;;;6401786;22;45330;-60
2023/01/27 20:33:22;;;;;;;;;30.67;27.00;;;;;;;;6403318;22;45275;-60
2023/01/27 20:35:47;;;;;;;;;27.00;23.33;;;;;;;;6403747;22;46260;-60
2023/01/27 20:38:13;;;;;;;;;20.67;19.00;;;;;;;;6403160;22;45203;-60
2023/01/27 20:40:38;;;;;;;;;18.67;15.33;;;;;;;;6403248;22;45578;-61
2023/01/27 20:43:03;;;;;;;;;20.00;17.33;;;;;;;;6402619;22;45329;-61
2023/01/27 20:45:28;;;;;;;;;22.00;18.00;;;;;;;;6404474;22;46119;-61
2023/01/27 20:47:54;;;;;;;;;21.00;17.67;;;;;;;;6375420;22;45292;-60
2023/01/27 20:50:20;;;;;;;;;24.67;19.67;;;;;;;;6405774;22;45328;-60
2023/01/27 20:52:47;;;;;;;;;20.67;17.67;;;;;;;;6403970;22;45308;-60
2023/01/27 20:55:12;;;;;;;;;26.33;19.33;;;;;;;;6402243;22;46114;-60
2023/01/27 20:57:38;;;;;;;;;21.67;18.00;;;;;;;;6403094;22;45274;-60
2023/01/27 21:00:03;;;;;;;;;21.67;18.00;;;;;;;;6403117;22;45371;-60
2023/01/27 21:02:29;;;;;;;;;25.67;23.67;;;;;;;;6402399;22;45268;-60
2023/01/27 21:04:54;;;;;;;;;21.33;16.67;;;;;;;;6402923;22;45520;-61
2023/01/27 21:07:20;;;;;;;;;23.00;20.33;;;;;;;;6403603;22;45323;-60
2023/01/27 21:09:46;;;;;;;;;21.67;18.67;;;;;;;;6401259;22;45312;-61
2023/01/27 21:12:11;;;;;;;;;20.67;19.67;;;;;;;;6400841;22;45379;-64
2023/01/27 21:14:36;;;;;;;;;25.33;22.33;;;;;;;;6403012;22;45270;-64